Time;durP1;ratioP1;P1;durP2;ratioP2;P2;SDS_P1;SDS_P2;PMS_P1;PMS_P2;Temp;Humidity;BMP_temperature;BMP_pressure;BME280_temperature;BME280_humidity;BME280_pressure;Samples;Min_cycle;Max_cycle;Signal;HPM_P1;HPM_P2
2022/05/13 00:01:07;;;;;;;4.55;2.70;;;;;;;21.71;58.68;100648.19;4974642;28;20729;-73
2022/05/13 00:03:32;;;;;;;3.30;2.13;;;;;;;21.65;58.42;100640.34;4973095;28;20977;-74
2022/05/13 00:05:58;;;;;;;2.35;2.03;;;;;;;21.64;58.38;100642.28;4973491;28;20491;-73
2022/05/13 00:08:23;;;;;;;2.03;1.90;;;;;;;21.65;58.34;100643.91;4974645;28;20463;-73
2022/05/13 00:10:48;;;;;;;2.60;2.33;;;;;;;21.66;58.04;100651.06;4974766;28;20393;-73
2022/05/13 00:13:14;;;;;;;2.63;2.03;;;;;;;21.68;57.90;100643.28;4972548;28;20448;-73
2022/05/13 00:15:42;;;;;;;2.50;2.00;;;;;;;21.71;57.76;100639.09;4973796;28;20811;-73
2022/05/13 00:18:08;;;;;;;2.78;1.90;;;;;;;21.66;57.79;100637.28;4973353;28;20879;-73
2022/05/13 00:20:33;;;;;;;2.40;1.90;;;;;;;21.62;58.07;100640.97;4973887;28;20419;-73
2022/05/13 00:22:58;;;;;;;2.73;1.93;;;;;;;21.59;57.93;100644.38;4972255;28;20432;-73
2022/05/13 00:25:29;;;;;;;2.20;1.75;;;;;;;21.56;57.84;100633.97;4974393;28;20412;-73
2022/05/13 00:27:56;;;;;;;2.92;1.95;;;;;;;21.60;57.65;100640.50;4974324;28;20482;-73
2022/05/13 00:30:22;;;;;;;3.35;2.30;;;;;;;21.55;57.85;100635.91;4973056;28;20401;-73
2022/05/13 00:32:49;;;;;;;4.78;2.70;;;;;;;21.56;58.00;100629.25;4974135;28;20471;-73
2022/05/13 00:35:15;;;;;;;2.85;2.60;;;;;;;21.53;58.83;100620.81;4973593;28;20899;-73
2022/05/13 00:37:40;;;;;;;2.80;2.60;;;;;;;21.51;59.33;100628.56;4974195;28;20864;-73
2022/05/13 00:40:07;;;;;;;4.60;3.47;;;;;;;21.51;59.65;100628.56;4974217;28;20488;-73
2022/05/13 00:42:32;;;;;;;3.15;2.95;;;;;;;21.50;60.05;100633.28;4974034;28;20416;-73
2022/05/13 00:44:58;;;;;;;6.73;4.00;;;;;;;21.48;60.47;100635.53;4973326;28;20843;-73
2022/05/13 00:47:24;;;;;;;5.10;3.03;;;;;;;21.41;60.81;100637.88;4974157;28;20388;-73
2022/05/13 00:49:50;;;;;;;3.42;2.80;;;;;;;21.40;60.86;100640.97;4974119;28;20388;-73
2022/05/13 00:52:16;;;;;;;2.80;2.60;;;;;;;21.38;60.78;100646.78;4972734;28;20415;-73
2022/05/13 00:54:42;;;;;;;3.30;3.00;;;;;;;21.42;60.47;100645.03;4973417;28;20819;-73
2022/05/13 00:57:11;;;;;;;2.65;2.10;;;;;;;21.42;60.11;100649.75;4973764;28;20442;-73
2022/05/13 00:59:38;;;;;;;3.80;2.50;;;;;;;21.43;59.91;100643.09;4973667;28;20392;-73
2022/05/13 01:02:04;;;;;;;4.38;2.13;;;;;;;21.50;59.64;100643.50;4972857;28;20974;-73
2022/05/13 01:04:31;;;;;;;2.33;2.00;;;;;;;21.49;59.27;100644.59;4973598;28;20408;-73
2022/05/13 01:06:59;;;;;;;3.10;2.60;;;;;;;21.42;58.90;100647.81;4973453;28;20878;-73
2022/05/13 01:09:31;;;;;;;4.90;1.80;;;;;;;21.39;58.85;100634.66;4972431;28;20400;-73
2022/05/13 01:11:58;;;;;;;3.65;2.15;;;;;;;21.38;58.69;100633.00;4972567;28;20404;-73
2022/05/13 01:14:33;;;;;;;4.90;1.83;;;;;;;21.35;58.57;100625.34;4972815;28;20736;-73
2022/05/13 01:20:29;;;;;;;1.70;1.60;;;;;;;21.45;58.47;100625.13;4971448;28;20764;-73
2022/05/13 01:23:00;;;;;;;1.97;1.87;;;;;;;21.42;57.93;100625.75;4970467;28;20911;-73
2022/05/13 01:25:29;;;;;;;3.13;2.20;;;;;;;21.42;57.92;100631.25;4972546;28;20404;-73
2022/05/13 01:28:04;;;;;;;5.57;1.60;;;;;;;21.41;57.42;100631.56;4972361;28;20401;-73
2022/05/13 01:30:30;;;;;;;2.00;1.73;;;;;;;21.38;56.88;100624.72;4958160;28;20420;-73
2022/05/13 01:32:56;;;;;;;2.75;1.98;;;;;;;21.34;57.08;100628.44;4972227;28;20479;-73
2022/05/13 01:35:22;;;;;;;2.80;1.65;;;;;;;21.29;57.15;100634.06;4973245;28;20432;-73
2022/05/13 01:37:48;;;;;;;3.85;2.28;;;;;;;21.28;57.24;100637.94;4973241;28;20389;-73
2022/05/13 01:40:14;;;;;;;3.80;1.90;;;;;;;21.25;57.30;100635.81;4973049;28;20407;-73
2022/05/13 01:42:39;;;;;;;2.93;1.43;;;;;;;21.20;57.48;100639.50;4971753;28;20412;-73
2022/05/13 01:45:07;;;;;;;2.88;1.92;;;;;;;21.20;57.32;100639.50;4973054;28;20759;-73
2022/05/13 01:47:32;;;;;;;2.08;1.88;;;;;;;21.20;57.31;100645.84;4973218;28;20392;-73
2022/05/13 01:49:58;;;;;;;1.80;1.50;;;;;;;21.17;57.28;100640.94;4972999;28;20403;-73
2022/05/13 01:52:24;;;;;;;4.45;1.52;;;;;;;21.16;57.21;100646.78;4972303;28;20423;-73
2022/05/13 01:54:49;;;;;;;3.20;1.60;;;;;;;21.22;56.55;100640.00;4973021;28;20450;-73
2022/05/13 01:57:15;;;;;;;4.10;1.95;;;;;;;21.26;56.80;100642.97;4972307;28;20447;-73
2022/05/13 01:59:41;;;;;;;4.50;1.65;;;;;;;21.19;56.93;100651.66;4972759;28;20555;-73
2022/05/13 02:02:06;;;;;;;2.20;2.00;;;;;;;21.15;57.25;100650.63;4972175;28;21018;-73
2022/05/13 02:04:31;;;;;;;1.93;1.73;;;;;;;21.09;57.25;100643.59;4972826;28;20431;-73
2022/05/13 02:06:57;;;;;;;3.13;2.07;;;;;;;21.10;57.31;100637.81;4972761;28;20398;-73
2022/05/13 02:09:23;;;;;;;4.70;2.00;;;;;;;21.12;57.14;100635.53;4972788;28;20400;-73
2022/05/13 02:11:48;;;;;;;3.43;2.13;;;;;;;21.10;57.53;100632.28;4972042;28;20455;-73
2022/05/13 02:14:15;;;;;;;3.33;2.30;;;;;;;21.05;57.91;100629.63;4971424;28;20871;-73
2022/05/13 02:16:40;;;;;;;2.25;2.05;;;;;;;20.99;58.10;100638.31;4972869;28;20491;-73
2022/05/13 02:19:05;;;;;;;2.50;2.00;;;;;;;20.98;58.41;100633.91;4972799;28;20530;-73
2022/05/13 02:21:31;;;;;;;2.40;2.03;;;;;;;21.02;58.29;100634.94;4971890;28;20760;-73
2022/05/13 02:23:56;;;;;;;2.38;2.17;;;;;;;21.02;58.29;100640.44;4972702;28;20416;-73
2022/05/13 02:26:21;;;;;;;3.93;2.97;;;;;;;21.02;58.47;100643.19;4972845;28;20882;-72
2022/05/13 02:28:47;;;;;;;5.90;2.90;;;;;;;21.01;58.44;100631.34;4972622;28;20475;-72
2022/05/13 02:31:13;;;;;;;2.40;2.20;;;;;;;21.00;58.58;100628.91;4972654;28;20388;-73
2022/05/13 02:33:39;;;;;;;2.70;2.00;;;;;;;20.99;58.55;100630.03;4954551;28;20435;-72
2022/05/13 02:36:06;;;;;;;3.43;2.30;;;;;;;21.01;58.68;100630.56;4972811;28;20396;-72
2022/05/13 02:38:32;;;;;;;3.15;2.50;;;;;;;21.04;58.81;100627.97;4972571;28;20395;-72
2022/05/13 02:41:13;;;;;;;2.75;2.53;;;;;;;21.08;58.88;100628.16;4974989;28;20883;-72
2022/05/13 02:43:41;;;;;;;4.40;2.28;;;;;;;21.05;59.23;100631.53;4975262;28;20427;-72
2022/05/13 02:46:07;;;;;;;3.80;2.67;;;;;;;20.98;59.57;100631.16;4976417;28;20487;-73
2022/05/13 02:48:33;;;;;;;4.07;2.60;;;;;;;20.91;59.69;100626.06;4974972;28;20404;-72
2022/05/13 02:50:58;;;;;;;4.40;2.38;;;;;;;20.93;59.74;100626.59;4976059;28;20407;-72
2022/05/13 02:53:24;;;;;;;2.53;2.23;;;;;;;20.93;59.37;100631.28;4974774;28;20423;-72
2022/05/13 02:55:49;;;;;;;4.95;2.90;;;;;;;20.92;59.18;100622.19;4976188;28;20504;-72
2022/05/13 02:58:15;;;;;;;2.60;2.40;;;;;;;20.96;59.08;100623.22;4975927;28;20396;-72
2022/05/13 03:00:41;;;;;;;3.03;2.17;;;;;;;20.97;58.71;100621.28;4976235;28;20427;-73
2022/05/13 03:03:07;;;;;;;3.57;2.37;;;;;;;20.91;58.71;100628.03;4975140;28;20838;-72
2022/05/13 03:05:34;;;;;;;2.45;2.15;;;;;;;20.91;58.84;100617.81;4976124;28;20878;-73
2022/05/13 03:08:01;;;;;;;5.03;2.33;;;;;;;20.95;58.92;100624.31;4975754;28;20400;-72
2022/05/13 03:10:31;;;;;;;4.10;3.35;;;;;;;20.99;60.25;100622.59;4974590;28;20796;-72
2022/05/13 03:12:59;;;;;;;5.20;4.10;;;;;;;20.99;61.81;100617.06;4975038;28;20420;-73
2022/05/13 03:15:26;;;;;;;5.78;4.65;;;;;;;20.96;63.27;100627.91;4975868;28;20852;-72
2022/05/13 03:17:51;;;;;;;7.13;4.57;;;;;;;20.94;64.00;100614.44;4975638;28;20442;-73
2022/05/13 03:20:19;;;;;;;5.00;4.40;;;;;;;20.92;63.92;100624.94;4975564;28;20498;-73
2022/05/13 03:22:45;;;;;;;6.35;4.25;;;;;;;20.94;64.06;100627.41;4973683;28;20949;-72
2022/05/13 03:25:11;;;;;;;7.63;4.40;;;;;;;20.91;63.62;100626.06;4975535;28;20400;-73
2022/05/13 03:27:36;;;;;;;5.87;4.07;;;;;;;20.87;63.85;100627.00;4975640;28;20486;-73
2022/05/13 03:30:03;;;;;;;7.32;4.00;;;;;;;20.79;63.88;100624.97;4975574;28;20399;-73
2022/05/13 03:32:28;;;;;;;5.00;4.50;;;;;;;20.71;64.09;100621.81;4973249;28;20416;-74
2022/05/13 03:34:53;;;;;;;6.05;4.80;;;;;;;20.69;63.94;100620.50;4975480;28;20495;-73
2022/05/13 03:37:19;;;;;;;6.60;3.80;;;;;;;20.60;63.91;100625.09;4974023;28;20428;-72
2022/05/13 03:39:44;;;;;;;4.90;3.50;;;;;;;20.50;64.10;100626.13;4975222;28;20400;-73
2022/05/13 03:42:09;;;;;;;6.30;3.40;;;;;;;20.46;63.99;100630.63;4974580;28;20909;-73
2022/05/13 03:44:36;;;;;;;4.30;3.00;;;;;;;20.45;63.90;100636.44;4975171;28;20462;-73
2022/05/13 03:47:03;;;;;;;4.03;3.10;;;;;;;20.42;63.73;100632.34;4975194;28;20524;-72
2022/05/13 03:49:28;;;;;;;4.43;2.97;;;;;;;20.45;63.33;100625.44;4975184;28;20415;-72
2022/05/13 03:51:53;;;;;;;6.57;4.47;;;;;;;20.40;63.34;100626.34;4972782;28;20412;-72
2022/05/13 03:54:19;;;;;;;8.73;5.77;;;;;;;20.37;63.32;100621.44;4975011;28;20392;-72
2022/05/13 03:56:44;;;;;;;3.17;2.55;;;;;;;20.38;63.14;100634.09;4975092;28;20450;-73
2022/05/13 03:59:09;;;;;;;6.30;3.10;;;;;;;20.31;63.13;100641.13;4974831;28;20408;-73
2022/05/13 04:01:34;;;;;;;4.27;2.90;;;;;;;20.30;63.24;100639.47;4973812;28;21125;-72
2022/05/13 04:04:00;;;;;;;4.80;2.37;;;;;;;20.32;62.96;100646.31;4973137;28;20424;-73
2022/05/13 04:09:09;;;;;;;3.35;2.60;;;;;;;20.24;63.45;100644.25;4973431;28;20411;-72
2022/05/13 04:11:37;;;;;;;3.83;2.87;;;;;;;20.30;63.32;100644.97;4972430;28;20412;-72
2022/05/13 04:16:50;;;;;;;3.70;2.17;;;;;;;20.36;62.92;100644.56;4961749;28;20875;-72
2022/05/13 04:19:16;;;;;;;5.90;2.80;;;;;;;20.33;62.99;100649.88;4964465;28;20406;-73
2022/05/13 04:21:43;;;;;;;6.03;3.05;;;;;;;20.33;63.16;100649.88;4969801;28;20895;-73
2022/05/13 04:24:10;;;;;;;9.60;5.82;;;;;;;20.35;62.92;100653.16;4965265;28;20482;-73
2022/05/13 04:26:36;;;;;;;6.57;4.13;;;;;;;20.34;63.04;100646.00;4967332;28;20409;-73
2022/05/13 04:29:01;;;;;;;6.80;3.55;;;;;;;20.37;62.96;100656.41;4983090;28;20759;-73
2022/05/13 04:31:32;;;;;;;6.70;2.80;;;;;;;20.41;62.94;100654.69;4974346;28;20743;-72
2022/05/13 04:33:58;;;;;;;4.90;2.63;;;;;;;20.46;62.65;100655.38;4973846;28;20771;-73
2022/05/13 04:36:24;;;;;;;5.65;3.20;;;;;;;20.41;62.70;100654.69;4974179;28;20753;-73
2022/05/13 04:38:51;;;;;;;8.15;2.95;;;;;;;20.30;62.92;100656.00;4972995;28;20504;-72
2022/05/13 04:44:02;;;;;;;3.92;2.40;;;;;;;20.30;63.15;100661.50;4964242;28;20431;-72
2022/05/13 04:46:28;;;;;;;5.87;2.80;;;;;;;20.36;62.92;100668.53;4973094;28;20404;-73
2022/05/13 04:48:53;;;;;;;4.57;2.30;;;;;;;20.39;62.97;100670.66;4970558;28;20954;-73
2022/05/13 04:51:19;;;;;;;5.47;2.43;;;;;;;20.27;63.27;100681.38;4966678;28;20466;-73
2022/05/13 04:53:47;;;;;;;5.18;2.83;;;;;;;20.11;63.66;100684.38;4973423;28;20490;-73
2022/05/13 04:56:13;;;;;;;4.30;2.42;;;;;;;20.14;63.74;100674.69;4973914;28;20392;-73
2022/05/13 04:58:38;;;;;;;5.37;2.80;;;;;;;20.18;63.55;100682.06;4967686;28;20787;-73
2022/05/13 05:01:06;;;;;;;3.28;2.20;;;;;;;20.15;63.51;100679.88;4974081;28;20406;-73
2022/05/13 05:03:32;;;;;;;4.03;2.28;;;;;;;20.17;63.40;100690.59;4972583;28;20424;-73
2022/05/13 05:05:58;;;;;;;5.38;2.75;;;;;;;20.22;63.04;100676.72;4978041;28;20400;-73
2022/05/13 05:08:25;;;;;;;4.28;2.15;;;;;;;20.24;63.21;100680.03;4972753;28;20892;-73
2022/05/13 05:10:50;;;;;;;4.43;2.95;;;;;;;20.23;63.14;100678.38;4968420;28;20890;-72
2022/05/13 05:13:20;;;;;;;6.10;5.00;;;;;;;20.26;63.07;100676.94;4970764;28;20407;-72
2022/05/13 05:15:45;;;;;;;4.13;2.63;;;;;;;20.35;62.52;100684.22;4974315;28;20406;-73
2022/05/13 05:18:11;;;;;;;4.95;2.53;;;;;;;20.37;62.49;100686.69;4972940;28;20848;-73
2022/05/13 05:20:37;;;;;;;4.03;2.55;;;;;;;20.32;62.76;100693.09;4973585;28;20495;-74
2022/05/13 05:23:02;;;;;;;7.97;3.30;;;;;;;20.24;63.01;100691.03;4971469;28;20412;-73
2022/05/13 05:25:29;;;;;;;3.90;2.40;;;;;;;20.24;63.37;100698.47;4980574;28;20427;-73
2022/05/13 05:27:55;;;;;;;3.65;2.40;;;;;;;20.23;63.21;100703.16;4972952;28;20396;-73
2022/05/13 05:30:21;;;;;;;4.10;2.40;;;;;;;20.23;62.63;100697.63;4973013;28;20871;-73
2022/05/13 05:32:46;;;;;;;4.20;2.50;;;;;;;20.22;62.84;100695.22;4972364;28;20436;-74
2022/05/13 05:35:17;;;;;;;3.57;2.30;;;;;;;20.19;63.01;100702.94;4973101;28;20411;-74
2022/05/13 05:37:42;;;;;;;5.30;2.53;;;;;;;20.19;63.09;100705.69;4972743;28;20392;-73
2022/05/13 05:40:09;;;;;;;6.13;2.67;;;;;;;20.21;63.02;100697.13;4969497;28;20419;-74
2022/05/13 05:42:36;;;;;;;6.97;3.53;;;;;;;20.28;62.70;100699.53;4969315;28;20473;-74
2022/05/13 05:45:01;;;;;;;5.82;2.78;;;;;;;20.33;62.79;100702.16;4979174;28;20414;-73
2022/05/13 05:47:27;;;;;;;6.37;2.80;;;;;;;20.31;62.84;100701.66;4969077;28;20456;-74
2022/05/13 05:49:52;;;;;;;5.20;2.30;;;;;;;20.25;62.71;100709.19;4961883;28;20428;-73
2022/05/13 05:52:17;;;;;;;4.50;2.83;;;;;;;20.17;63.13;100701.59;4972302;28;20474;-73
2022/05/13 05:57:27;;;;;;;6.87;3.07;;;;;;;20.28;62.86;100705.84;4975553;28;20910;-73
2022/05/13 05:59:53;;;;;;;4.72;2.83;;;;;;;20.30;62.61;100714.59;4975952;28;20454;-73
2022/05/13 06:02:18;;;;;;;3.97;2.50;;;;;;;20.27;62.55;100720.72;4968057;28;20420;-72
2022/05/13 06:04:44;;;;;;;4.47;2.40;;;;;;;20.22;62.59;100725.47;4971550;28;20423;-72
2022/05/13 06:07:14;;;;;;;3.13;2.40;;;;;;;20.18;62.93;100723.34;4983247;28;20441;-72
2022/05/13 06:09:40;;;;;;;5.50;2.70;;;;;;;20.27;62.38;100725.41;4972035;28;20424;-73
2022/05/13 06:12:07;;;;;;;4.97;2.58;;;;;;;20.30;62.66;100717.38;4971387;28;20933;-72
2022/05/13 06:14:33;;;;;;;6.47;3.20;;;;;;;20.36;62.26;100720.81;4971497;28;20420;-73
2022/05/13 06:16:58;;;;;;;5.82;2.60;;;;;;;20.42;62.19;100727.88;4976726;28;20400;-72
2022/05/13 06:19:24;;;;;;;5.73;3.10;;;;;;;20.42;62.17;100734.19;4975613;28;20392;-73
2022/05/13 06:21:51;;;;;;;4.50;2.83;;;;;;;20.41;62.49;100740.03;4976680;28;20396;-72
2022/05/13 06:24:18;;;;;;;5.07;2.67;;;;;;;20.37;62.66;100745.31;4975701;28;20432;-72
2022/05/13 06:26:44;;;;;;;5.67;3.33;;;;;;;20.34;62.86;100745.09;4987001;28;20425;-72
2022/05/13 06:29:09;;;;;;;7.03;3.13;;;;;;;20.30;62.53;100755.06;4983230;28;20499;-72
2022/05/13 06:31:36;;;;;;;3.93;2.87;;;;;;;20.34;62.28;100751.44;4976780;28;20511;-72
2022/05/13 06:34:02;;;;;;;5.18;2.92;;;;;;;20.39;61.70;100753.25;4976409;28;20962;-73
2022/05/13 06:36:27;;;;;;;4.97;2.53;;;;;;;20.40;61.49;100761.22;4976369;28;20492;-73
2022/05/13 06:38:52;;;;;;;6.30;3.33;;;;;;;20.40;61.60;100754.91;4976190;28;20423;-73
2022/05/13 06:41:19;;;;;;;7.45;3.33;;;;;;;20.37;61.64;100766.50;4974414;28;22570;-72
2022/05/13 06:43:45;;;;;;;8.23;2.37;;;;;;;20.30;61.87;100766.91;4975381;28;20519;-73
2022/05/13 06:46:10;;;;;;;6.03;2.67;;;;;;;20.29;61.96;100772.69;4974904;28;20495;-72
2022/05/13 06:48:37;;;;;;;4.68;2.47;;;;;;;20.27;61.81;100767.50;4976019;28;20760;-72
2022/05/13 06:51:04;;;;;;;4.70;2.50;;;;;;;20.24;62.13;100770.84;4974575;28;20403;-72
2022/05/13 06:53:30;;;;;;;4.57;2.50;;;;;;;20.08;62.55;100774.97;4975894;28;20415;-72
2022/05/13 06:55:55;;;;;;;6.63;2.58;;;;;;;20.05;62.67;100770.06;4974904;28;20400;-72
2022/05/13 06:58:20;;;;;;;7.40;2.90;;;;;;;20.07;62.60;100776.06;4975092;28;20408;-73
2022/05/13 07:00:45;;;;;;;3.90;2.47;;;;;;;20.20;62.42;100772.56;4975952;28;20875;-72
2022/05/13 07:03:13;;;;;;;4.50;2.40;;;;;;;20.28;62.28;100773.84;4966730;28;20426;-72
2022/05/13 07:05:38;;;;;;;4.47;2.57;;;;;;;20.40;62.14;100786.00;4974139;28;20466;-72
2022/05/13 07:08:04;;;;;;;4.75;2.50;;;;;;;20.47;61.28;100783.66;4973979;28;20887;-73
2022/05/13 07:10:29;;;;;;;8.70;2.43;;;;;;;20.41;61.54;100779.38;4975127;28;20569;-73
2022/05/13 07:12:55;;;;;;;6.97;2.70;;;;;;;20.42;61.41;100786.50;4974150;28;20911;-73
2022/05/13 07:15:20;;;;;;;6.33;2.53;;;;;;;20.49;60.73;100791.63;4974581;28;20470;-74
2022/05/13 07:17:46;;;;;;;5.50;2.83;;;;;;;20.50;59.92;100788.56;4975556;28;20917;-74
2022/05/13 07:20:12;;;;;;;4.50;2.90;;;;;;;20.53;59.58;100789.91;4971471;28;20418;-73
2022/05/13 07:22:38;;;;;;;5.95;2.78;;;;;;;20.52;59.16;100789.06;4974230;28;20559;-73
2022/05/13 07:25:04;;;;;;;6.57;2.72;;;;;;;20.43;59.01;100790.06;4973987;28;20499;-73
2022/05/13 07:27:30;;;;;;;6.78;2.78;;;;;;;20.44;58.55;100798.03;4967959;28;20389;-74
2022/05/13 07:29:55;;;;;;;10.73;2.40;;;;;;;20.50;58.22;100807.03;4974637;28;20626;-73
2022/05/13 07:32:21;;;;;;;7.82;2.63;;;;;;;20.58;58.29;100803.59;4973986;28;20514;-73
2022/05/13 07:34:46;;;;;;;5.73;2.63;;;;;;;20.60;57.94;100799.41;4975255;28;20408;-73
2022/05/13 07:37:11;;;;;;;3.43;2.00;;;;;;;20.64;58.13;100805.13;4975114;28;20811;-73
2022/05/13 07:42:20;;;;;;;5.85;2.30;;;;;;;20.52;58.03;100804.78;4961346;28;20423;-74
2022/05/13 07:44:47;;;;;;;4.00;2.67;;;;;;;20.52;58.17;100811.09;4975212;28;20452;-73
2022/05/13 07:47:12;;;;;;;6.82;2.30;;;;;;;20.58;58.21;100811.84;4975150;28;20404;-73
2022/05/13 07:49:39;;;;;;;4.27;2.20;;;;;;;20.62;56.96;100810.91;4974304;28;20724;-73
2022/05/13 07:52:06;;;;;;;6.15;2.28;;;;;;;20.68;56.36;100808.91;4974755;28;20899;-73
2022/05/13 07:54:31;;;;;;;6.65;2.35;;;;;;;20.75;56.53;100811.28;4974990;28;20411;-74
2022/05/13 07:56:57;;;;;;;4.03;1.67;;;;;;;20.79;56.67;100810.34;4975276;28;20875;-74
2022/05/13 07:59:22;;;;;;;4.67;2.10;;;;;;;20.77;56.18;100807.09;4975058;28;20479;-73
2022/05/13 08:01:47;;;;;;;4.70;2.03;;;;;;;20.84;55.63;100814.94;4974811;28;20924;-74
2022/05/13 08:04:13;;;;;;;5.37;2.40;;;;;;;20.94;55.03;100821.09;4974577;28;20463;-73
2022/05/13 08:06:39;;;;;;;6.53;2.55;;;;;;;20.97;54.62;100817.72;4973284;28;20508;-73
2022/05/13 08:09:05;;;;;;;4.97;1.97;;;;;;;21.09;53.28;100818.06;4974542;28;20400;-73
2022/05/13 08:11:30;;;;;;;6.60;2.30;;;;;;;21.20;53.50;100818.66;4973577;28;20775;-73
2022/05/13 08:13:58;;;;;;;5.03;2.43;;;;;;;21.29;53.91;100816.81;4974067;28;20478;-73
2022/05/13 08:16:26;;;;;;;5.03;1.95;;;;;;;21.31;53.81;100820.06;4973746;28;20412;-73
2022/05/13 08:18:58;;;;;;;5.18;2.03;;;;;;;21.26;53.41;100814.69;4973525;28;20403;-74
2022/05/13 08:21:24;;;;;;;5.47;2.15;;;;;;;21.29;53.39;100822.34;4973226;28;20415;-73
2022/05/13 08:23:50;;;;;;;5.03;2.03;;;;;;;21.33;53.73;100828.88;4973665;28;20424;-73
2022/05/13 08:26:16;;;;;;;3.65;2.00;;;;;;;21.34;52.68;100818.66;4965306;28;20449;-72
2022/05/13 08:28:42;;;;;;;7.22;2.03;;;;;;;21.37;52.37;100813.31;4973436;28;20400;-72
2022/05/13 08:31:08;;;;;;;7.57;2.60;;;;;;;21.40;51.75;100814.66;4973022;28;20923;-73
2022/05/13 08:33:34;;;;;;;6.05;2.60;;;;;;;21.34;51.70;100819.44;4969523;28;20891;-73
2022/05/13 08:36:02;;;;;;;6.93;1.90;;;;;;;21.39;51.87;100818.53;4957123;28;20427;-73
2022/05/13 08:38:31;;;;;;;7.55;2.10;;;;;;;21.39;52.65;100824.88;4973181;28;20452;-72
2022/05/13 08:41:16;;;;;;;4.82;1.80;;;;;;;21.49;50.68;100816.41;4973893;28;20409;-72
2022/05/13 08:43:49;;;;;;;5.97;2.07;;;;;;;21.53;48.49;100820.16;4971058;28;20420;-72
2022/05/13 08:46:33;;;;;;;5.20;2.40;;;;;;;21.72;48.78;100825.53;4961380;28;20421;-72
2022/05/13 08:49:29;;;;;;;7.68;2.05;;;;;;;21.79;47.71;100814.91;4973784;28;20404;-72
2022/05/13 08:55:09;;;;;;;3.70;1.50;;;;;;;21.89;46.97;100820.22;4973933;28;20968;-72
2022/05/13 08:57:39;;;;;;;6.87;1.53;;;;;;;21.96;46.69;100825.31;4972507;28;20416;-72
2022/05/13 09:00:10;;;;;;;7.63;2.22;;;;;;;21.99;45.42;100819.16;4973305;28;20497;-72
2022/05/13 09:02:49;;;;;;;9.15;2.17;;;;;;;21.94;45.02;100810.97;4973041;28;20820;-72
2022/05/13 09:05:28;;;;;;;5.90;1.70;;;;;;;22.03;44.88;100809.94;4964108;28;20740;-72
2022/05/13 09:07:55;;;;;;;2.35;1.20;;;;;;;22.23;45.32;100812.19;4965080;28;20413;-73
2022/05/13 09:10:21;;;;;;;4.80;1.70;;;;;;;22.37;45.24;100817.66;4971492;28;20856;-72
2022/05/13 09:12:54;;;;;;;3.63;1.40;;;;;;;22.42;44.15;100811.19;4972573;28;20540;-72
2022/05/13 09:15:38;;;;;;;4.47;1.40;;;;;;;22.45;43.48;100808.63;4974164;28;20412;-73
2022/05/13 09:18:10;;;;;;;3.58;1.77;;;;;;;22.71;42.02;100823.44;4970177;28;20454;-71
2022/05/13 09:21:03;;;;;;;2.95;1.23;;;;;;;22.81;41.33;100818.75;4972514;28;20502;-73
2022/05/13 09:23:30;;;;;;;2.33;1.23;;;;;;;22.97;41.24;100814.44;4971469;28;20782;-72
2022/05/13 09:26:13;;;;;;;4.35;1.48;;;;;;;23.07;40.76;100823.28;4972757;28;20428;-73
2022/05/13 09:29:24;;;;;;;5.93;1.50;;;;;;;23.28;40.10;100824.31;4972060;28;20395;-72
2022/05/13 09:32:00;;;;;;;3.30;1.42;;;;;;;23.33;40.41;100828.06;4961296;28;20424;-72
2022/05/13 09:34:46;;;;;;;4.18;1.33;;;;;;;23.40;39.60;100817.34;4972395;28;20454;-72
2022/05/13 09:37:19;;;;;;;2.13;1.30;;;;;;;23.37;40.31;100821.59;4969358;28;20396;-72
2022/05/13 09:39:47;;;;;;;3.50;1.60;;;;;;;23.38;40.81;100825.16;4969472;28;20399;-72
2022/05/13 09:42:24;;;;;;;5.15;2.08;;;;;;;23.47;39.54;100823.25;4972239;28;20431;-73
2022/05/13 09:44:51;;;;;;;5.60;1.42;;;;;;;23.63;39.61;100816.94;4980675;28;20458;-72
2022/05/13 09:47:27;;;;;;;2.13;0.75;;;;;;;23.88;39.03;100818.09;4961319;28;20766;-73
2022/05/13 09:49:52;;;;;;;3.25;1.75;;;;;;;24.28;38.04;100818.78;4971185;28;20439;-72
2022/05/13 09:52:29;;;;;;;3.97;1.40;;;;;;;24.98;37.35;100817.50;4971698;28;20442;-72
2022/05/13 09:55:02;;;;;;;3.00;1.23;;;;;;;25.93;35.20;100818.56;4972879;28;20412;-71
2022/05/13 09:57:33;;;;;;;3.47;1.23;;;;;;;26.80;33.68;100814.66;4965389;28;20418;-72
2022/05/13 10:00:17;;;;;;;4.22;1.10;;;;;;;27.67;31.88;100822.69;4975222;28;20416;-71
2022/05/13 10:02:47;;;;;;;2.80;1.17;;;;;;;28.30;30.58;100821.03;4979312;28;20492;-70
2022/05/13 10:05:23;;;;;;;4.50;1.30;;;;;;;29.05;29.09;100816.28;4961275;28;20412;-71
2022/05/13 10:07:51;;;;;;;3.17;1.25;;;;;;;29.49;29.16;100810.59;4970318;28;20420;-71
2022/05/13 10:16:10;;;;;;;1.85;0.85;;;;;;;30.31;26.69;100808.44;4972174;28;20426;-72
2022/05/13 10:18:45;;;;;;;2.63;0.87;;;;;;;30.61;26.92;100805.84;4963753;28;20930;-72
2022/05/13 10:21:18;;;;;;;2.05;0.90;;;;;;;31.06;26.95;100808.66;4961110;28;20417;-71
2022/05/13 10:24:04;;;;;;;2.47;1.00;;;;;;;30.79;26.48;100810.56;4975624;28;20418;-72
2022/05/13 10:26:35;;;;;;;3.10;1.00;;;;;;;31.14;25.60;100806.81;4970595;28;20416;-73
2022/05/13 10:29:10;;;;;;;1.85;0.85;;;;;;;31.45;24.79;100814.09;4972257;28;20436;-71
2022/05/13 10:31:42;;;;;;;3.47;1.20;;;;;;;31.86;24.59;100805.50;4971152;28;20488;-71
2022/05/13 10:34:29;;;;;;;3.70;1.00;;;;;;;32.52;24.20;100809.53;4977730;28;20513;-71
2022/05/13 10:37:34;;;;;;;4.15;1.38;;;;;;;32.62;23.72;100810.88;4970316;28;20416;-70
2022/05/13 10:40:11;;;;;;;2.30;1.08;;;;;;;32.92;23.62;100807.94;4941241;28;20400;-70
2022/05/13 10:42:51;;;;;;;5.22;0.80;;;;;;;33.08;23.56;100805.69;4968281;28;20412;-71
2022/05/13 10:45:21;;;;;;;2.40;0.80;;;;;;;32.83;23.46;100802.66;4979446;28;20408;-71
2022/05/13 10:48:20;;;;;;;1.92;0.93;;;;;;;32.67;22.94;100799.31;4972476;28;20423;-70
2022/05/13 10:51:03;;;;;;;2.90;1.13;;;;;;;33.10;22.87;100792.88;4972145;28;20416;-70
2022/05/13 10:54:14;;;;;;;1.90;0.90;;;;;;;33.62;22.49;100796.50;4961276;28;20396;-70
2022/05/13 10:56:46;;;;;;;1.40;0.90;;;;;;;33.57;21.48;100794.81;4971721;28;20487;-70
2022/05/13 10:59:34;;;;;;;2.90;0.90;;;;;;;33.54;20.34;100797.59;4972408;28;20396;-70
2022/05/13 11:02:27;;;;;;;1.42;0.70;;;;;;;33.65;20.77;100799.31;4976118;28;20391;-70
2022/05/13 11:05:10;;;;;;;2.83;0.83;;;;;;;33.51;20.87;100792.78;4968032;28;20430;-70
2022/05/13 11:08:22;;;;;;;4.80;1.20;;;;;;;33.61;20.94;100803.31;4973655;28;20392;-71
2022/05/13 11:11:32;;;;;;;1.42;0.82;;;;;;;33.54;21.75;100798.41;4963727;28;20412;-71
2022/05/13 11:14:32;;;;;;;2.05;1.02;;;;;;;33.47;21.87;100804.00;4973844;28;20412;-70
2022/05/13 11:17:25;;;;;;;8.55;1.48;;;;;;;33.58;21.18;100799.25;4966688;28;20421;-71
2022/05/13 11:19:53;;;;;;;4.15;1.10;;;;;;;33.52;21.94;100800.81;4962481;28;20440;-70
2022/05/13 11:23:00;;;;;;;4.93;1.30;;;;;;;33.14;21.02;100793.72;4958866;28;20830;-71
2022/05/13 11:28:36;;;;;;;2.88;0.85;;;;;;;33.53;21.36;100790.38;4969181;28;20459;-70
2022/05/13 11:31:16;;;;;;;3.72;1.30;;;;;;;33.46;21.98;100784.72;4974800;28;20954;-70
2022/05/13 11:33:50;;;;;;;2.78;1.80;;;;;;;33.18;21.29;100782.50;4973716;28;20890;-71
2022/05/13 11:36:37;;;;;;;3.20;0.90;;;;;;;32.86;21.59;100787.84;4963687;28;20779;-70
2022/05/13 11:39:32;;;;;;;2.10;1.20;;;;;;;32.69;22.73;100782.88;4973667;28;20408;-70
2022/05/13 11:42:28;;;;;;;3.63;0.93;;;;;;;32.52;22.83;100783.47;4973285;28;20413;-70
2022/05/13 11:45:18;;;;;;;4.40;1.43;;;;;;;32.23;22.56;100783.19;4973100;28;20511;-70
2022/05/13 11:47:51;;;;;;;1.65;1.15;;;;;;;32.19;22.53;100781.50;4969190;28;20783;-71
2022/05/13 11:50:17;;;;;;;3.00;1.00;;;;;;;32.65;21.80;100774.41;4975647;28;20414;-71
2022/05/13 11:52:46;;;;;;;1.95;0.80;;;;;;;32.89;22.05;100778.66;4982677;28;20426;-71
2022/05/13 11:55:21;;;;;;;2.33;0.88;;;;;;;32.65;22.19;100788.44;4973741;28;20412;-70
2022/05/13 11:57:49;;;;;;;2.63;0.88;;;;;;;32.12;22.37;100778.63;4970765;28;20440;-71
2022/05/13 12:00:37;;;;;;;2.45;0.98;;;;;;;32.62;22.43;100780.00;4973385;28;20508;-71
2022/05/13 12:03:22;;;;;;;2.38;0.82;;;;;;;32.74;21.39;100779.69;4973475;28;20447;-70
2022/05/13 12:05:48;;;;;;;1.33;0.80;;;;;;;32.71;21.92;100777.66;4959982;28;20412;-70